createdAt,value
2022-08-26T00:00:42.489Z,0
2022-08-26T00:01:55.959Z,0
2022-08-26T00:02:59.961Z,0
2022-08-26T00:04:37.696Z,0
2022-08-26T00:05:42.770Z,0
2022-08-26T00:06:54.229Z,0
2022-08-26T00:08:31.202Z,0
2022-08-26T00:09:47.408Z,0
2022-08-26T00:10:54.766Z,0
2022-08-26T00:12:55.007Z,0
2022-08-26T00:14:05.120Z,0
2022-08-26T00:15:08.455Z,0
2022-08-26T00:16:53.092Z,0
2022-08-26T00:18:05.051Z,0
2022-08-26T00:19:26.129Z,0
2022-08-26T00:21:12.036Z,0
2022-08-26T00:22:27.376Z,0
2022-08-26T00:23:36.081Z,0
2022-08-26T00:25:17.461Z,0
2022-08-26T00:26:22.546Z,0
2022-08-26T00:27:33.880Z,0
2022-08-26T00:29:17.619Z,0
2022-08-26T00:30:28.546Z,0
2022-08-26T00:31:37.151Z,0
2022-08-26T00:33:16.922Z,0
2022-08-26T00:34:25.386Z,0
2022-08-26T00:35:29.414Z,0
2022-08-26T00:37:16.293Z,0
2022-08-26T00:38:20.736Z,0
2022-08-26T00:39:26.512Z,0
2022-08-26T00:41:09.202Z,0
2022-08-26T00:42:14.265Z,0
2022-08-26T00:43:25.711Z,0
2022-08-26T00:45:04.364Z,0
2022-08-26T00:46:17.600Z,0
2022-08-26T00:47:25.480Z,0
2022-08-26T00:49:11.854Z,0
2022-08-26T00:50:16.744Z,0
2022-08-26T00:51:21.270Z,0
2022-08-26T00:53:01.602Z,0
2022-08-26T00:54:06.035Z,0
2022-08-26T00:55:11.770Z,0
2022-08-26T00:57:00.291Z,0
2022-08-26T00:58:04.716Z,0
2022-08-26T00:59:10.073Z,0
2022-08-26T01:00:41.427Z,0
2022-08-26T01:01:57.765Z,0
2022-08-26T01:03:11.644Z,0
2022-08-26T01:04:54.235Z,0
2022-08-26T01:06:00.154Z,0
2022-08-26T01:07:07.193Z,0
2022-08-26T01:08:47.403Z,0
2022-08-26T01:09:51.221Z,0
2022-08-26T01:10:56.094Z,0
2022-08-26T01:12:40.332Z,0
2022-08-26T01:13:46.107Z,0
2022-08-26T01:14:52.215Z,0
2022-08-26T01:16:29.669Z,0
2022-08-26T01:17:34.652Z,0
2022-08-26T01:18:38.785Z,0
2022-08-26T01:20:18.323Z,0
2022-08-26T01:21:28.280Z,0
2022-08-26T01:22:38.232Z,0
2022-08-26T01:24:21.794Z,0
2022-08-26T01:25:26.981Z,0
2022-08-26T01:26:44.105Z,0
2022-08-26T01:28:23.201Z,0
2022-08-26T01:29:28.023Z,0
2022-08-26T01:30:32.358Z,0
2022-08-26T01:32:11.158Z,0
2022-08-26T01:33:14.908Z,0
2022-08-26T01:34:20.551Z,0
2022-08-26T01:35:57.289Z,0
2022-08-26T01:37:06.433Z,0
2022-08-26T01:38:10.398Z,0
2022-08-26T01:39:50.651Z,0
2022-08-26T01:40:56.186Z,0
2022-08-26T01:42:10.360Z,0
2022-08-26T01:43:46.462Z,0
2022-08-26T01:44:53.740Z,0
2022-08-26T01:45:59.720Z,0
2022-08-26T01:47:37.481Z,0
2022-08-26T01:48:41.101Z,0
2022-08-26T01:49:50.863Z,0
2022-08-26T01:51:42.934Z,0
2022-08-26T01:52:55.602Z,0
2022-08-26T01:54:05.279Z,0
2022-08-26T01:56:00.742Z,0
2022-08-26T01:57:06.076Z,0
2022-08-26T01:58:13.490Z,0
2022-08-26T01:59:50.808Z,0
2022-08-26T02:00:41.930Z,0
2022-08-26T02:01:52.751Z,0
2022-08-26T02:02:56.480Z,0
2022-08-26T02:04:33.340Z,0
2022-08-26T02:05:38.137Z,0
2022-08-26T02:06:42.121Z,0
2022-08-26T02:08:30.192Z,0
2022-08-26T02:09:41.434Z,0
2022-08-26T02:10:48.663Z,0
2022-08-26T02:12:33.672Z,0
2022-08-26T02:13:39.634Z,0
2022-08-26T02:14:50.158Z,0
2022-08-26T02:16:31.879Z,0
2022-08-26T02:17:40.444Z,0
2022-08-26T02:18:47.009Z,0
2022-08-26T02:20:38.269Z,0
2022-08-26T02:21:51.339Z,0
2022-08-26T02:22:57.602Z,0
2022-08-26T02:24:38.901Z,0
2022-08-26T02:25:42.827Z,0
2022-08-26T02:26:50.697Z,0
2022-08-26T02:28:32.578Z,0
2022-08-26T02:29:39.622Z,0
2022-08-26T02:30:47.212Z,0
2022-08-26T02:32:30.169Z,0
2022-08-26T02:33:33.758Z,0
2022-08-26T02:34:42.766Z,0
2022-08-26T02:36:28.562Z,0
2022-08-26T02:37:34.886Z,0
2022-08-26T02:38:41.027Z,0
2022-08-26T02:40:27.579Z,0
2022-08-26T02:41:34.457Z,0
2022-08-26T02:42:38.362Z,0
2022-08-26T02:44:18.326Z,0
2022-08-26T02:45:28.930Z,0
2022-08-26T02:46:54.164Z,0
2022-08-26T02:48:37.025Z,0
2022-08-26T02:49:40.748Z,0
2022-08-26T02:50:48.360Z,0
2022-08-26T02:52:26.884Z,0
2022-08-26T02:53:37.845Z,0
2022-08-26T02:54:44.765Z,0
2022-08-26T02:56:22.846Z,0
2022-08-26T02:57:30.063Z,0
2022-08-26T02:58:34.834Z,0
2022-08-26T03:00:53.154Z,0
2022-08-26T03:01:57.869Z,0
2022-08-26T03:03:02.476Z,0
2022-08-26T03:04:57.518Z,0
2022-08-26T03:06:06.075Z,0
2022-08-26T03:07:18.445Z,0
2022-08-26T03:08:57.461Z,0
2022-08-26T03:10:08.574Z,0
2022-08-26T03:11:13.240Z,0
2022-08-26T03:12:53.264Z,0
2022-08-26T03:13:57.413Z,0
2022-08-26T03:15:01.081Z,0
2022-08-26T03:16:43.999Z,0
2022-08-26T03:18:02.925Z,0
2022-08-26T03:19:17.670Z,0
2022-08-26T03:21:01.661Z,0
2022-08-26T03:22:09.675Z,0
2022-08-26T03:23:16.319Z,0
2022-08-26T03:24:57.677Z,0
2022-08-26T03:26:01.751Z,0
2022-08-26T03:27:20.274Z,0
2022-08-26T03:28:59.402Z,0
2022-08-26T03:30:08.255Z,0
2022-08-26T03:31:16.164Z,0
2022-08-26T03:32:58.613Z,0
2022-08-26T03:34:05.643Z,0
2022-08-26T03:35:09.942Z,0
2022-08-26T03:36:47.698Z,0
2022-08-26T03:37:52.125Z,0
2022-08-26T03:38:57.000Z,0
2022-08-26T03:40:40.826Z,0
2022-08-26T03:41:44.518Z,0
2022-08-26T03:42:51.225Z,0
2022-08-26T03:44:30.879Z,0
2022-08-26T03:45:34.391Z,0
2022-08-26T03:46:39.444Z,0
2022-08-26T03:48:20.877Z,0
2022-08-26T03:49:28.993Z,0
2022-08-26T03:50:40.225Z,0
2022-08-26T03:52:22.957Z,0
2022-08-26T03:53:32.164Z,0
2022-08-26T03:54:40.866Z,0
2022-08-26T03:56:21.913Z,0
2022-08-26T03:57:28.703Z,0
2022-08-26T03:58:34.145Z,0
2022-08-26T04:00:42.528Z,0
2022-08-26T04:01:48.410Z,0
2022-08-26T04:02:53.459Z,0
2022-08-26T04:04:41.705Z,0
2022-08-26T04:06:09.696Z,0
2022-08-26T04:07:13.731Z,0
2022-08-26T04:08:18.625Z,0
2022-08-26T04:09:58.057Z,0
2022-08-26T04:11:03.234Z,0
2022-08-26T04:12:10.570Z,0
2022-08-26T04:13:46.463Z,0
2022-08-26T04:14:51.029Z,0
2022-08-26T04:15:58.090Z,0
2022-08-26T04:17:41.916Z,0
2022-08-26T04:18:58.321Z,0
2022-08-26T04:20:01.557Z,0
2022-08-26T04:21:38.086Z,0
2022-08-26T04:22:47.710Z,0
2022-08-26T04:24:11.746Z,0
2022-08-26T04:25:51.762Z,0
2022-08-26T04:26:59.408Z,0
2022-08-26T04:28:05.350Z,0
2022-08-26T04:29:40.339Z,0
2022-08-26T04:30:48.071Z,0
2022-08-26T04:31:55.609Z,0
2022-08-26T04:33:55.257Z,0
2022-08-26T04:34:58.651Z,0
2022-08-26T04:36:06.129Z,0
2022-08-26T04:37:48.902Z,0
2022-08-26T04:38:52.514Z,0
2022-08-26T04:39:57.819Z,0
2022-08-26T04:41:48.481Z,0
2022-08-26T04:42:56.554Z,0
2022-08-26T04:44:03.107Z,0
2022-08-26T04:45:40.049Z,0
2022-08-26T04:46:45.774Z,0
2022-08-26T04:47:55.269Z,0
2022-08-26T04:49:41.364Z,0
2022-08-26T04:50:49.433Z,0
2022-08-26T04:51:55.822Z,0
2022-08-26T04:53:34.462Z,0
2022-08-26T04:54:41.901Z,0
2022-08-26T04:56:06.577Z,0
2022-08-26T04:57:44.725Z,0
2022-08-26T04:58:47.781Z,0
2022-08-26T04:59:57.313Z,0
2022-08-26T05:00:43.050Z,0
2022-08-26T05:01:52.217Z,0
2022-08-26T05:02:57.180Z,0
2022-08-26T05:04:40.067Z,0
2022-08-26T05:05:46.470Z,0
2022-08-26T05:06:59.224Z,0
2022-08-26T05:08:39.331Z,0
2022-08-26T05:09:44.113Z,0
2022-08-26T05:10:49.429Z,0
2022-08-26T05:12:27.767Z,0
2022-08-26T05:13:39.873Z,0
2022-08-26T05:14:42.696Z,0
2022-08-26T05:16:24.481Z,0
2022-08-26T05:17:31.993Z,0
2022-08-26T05:18:37.135Z,0
2022-08-26T05:20:12.880Z,0
2022-08-26T05:21:17.378Z,0
2022-08-26T05:22:24.304Z,0
2022-08-26T05:24:00.822Z,0
2022-08-26T05:25:03.953Z,0
2022-08-26T05:26:16.577Z,0
2022-08-26T05:27:56.160Z,0
2022-08-26T05:29:00.582Z,0
2022-08-26T05:30:12.581Z,0
2022-08-26T05:31:49.168Z,0
2022-08-26T05:32:55.428Z,0
2022-08-26T05:34:00.268Z,0
2022-08-26T05:35:48.399Z,0
2022-08-26T05:36:56.534Z,0
2022-08-26T05:37:59.614Z,0
2022-08-26T05:39:39.922Z,0
2022-08-26T05:40:49.114Z,0
2022-08-26T05:42:02.957Z,0
2022-08-26T05:43:41.217Z,0
2022-08-26T05:45:08.520Z,0
2022-08-26T05:46:17.215Z,0
2022-08-26T05:47:58.263Z,0
2022-08-26T05:49:12.733Z,0
2022-08-26T05:50:19.992Z,0
2022-08-26T05:51:59.347Z,0
2022-08-26T05:53:02.395Z,0
2022-08-26T05:54:21.811Z,0
2022-08-26T05:55:58.253Z,0
2022-08-26T05:57:03.078Z,0
2022-08-26T05:58:14.061Z,0
2022-08-26T05:59:59.090Z,0
2022-08-26T06:00:41.963Z,0
2022-08-26T06:01:51.226Z,0
2022-08-26T06:02:59.970Z,0
2022-08-26T06:04:42.051Z,0
2022-08-26T06:05:50.713Z,0
2022-08-26T06:06:57.096Z,0
2022-08-26T06:08:36.898Z,0
2022-08-26T06:09:44.135Z,0
2022-08-26T06:11:03.411Z,0
2022-08-26T06:12:43.022Z,0
2022-08-26T06:13:49.668Z,0
2022-08-26T06:14:54.697Z,0
2022-08-26T06:16:31.747Z,0
2022-08-26T06:17:40.531Z,0
2022-08-26T06:18:46.828Z,0
2022-08-26T06:20:25.632Z,0
2022-08-26T06:21:30.757Z,0
2022-08-26T06:22:40.615Z,0
2022-08-26T06:24:19.398Z,0
2022-08-26T06:25:22.828Z,0
2022-08-26T06:26:28.030Z,0
2022-08-26T06:28:08.503Z,0
2022-08-26T06:29:24.069Z,0
2022-08-26T06:30:31.114Z,0
2022-08-26T06:32:08.793Z,0
2022-08-26T06:33:12.815Z,0
2022-08-26T06:34:22.041Z,0
2022-08-26T06:36:00.167Z,0
2022-08-26T06:37:12.245Z,0
2022-08-26T06:38:15.830Z,0
2022-08-26T06:40:03.768Z,0
2022-08-26T06:41:09.722Z,0
2022-08-26T06:42:14.046Z,0
2022-08-26T06:43:50.030Z,0
2022-08-26T06:44:57.989Z,0
2022-08-26T06:46:01.989Z,0
2022-08-26T06:47:41.749Z,0
2022-08-26T06:48:45.125Z,0
2022-08-26T06:49:56.821Z,0
2022-08-26T06:51:34.996Z,0.585
2022-08-26T06:52:43.607Z,0.585
2022-08-26T06:53:47.114Z,0.585
2022-08-26T06:55:27.009Z,0.585
2022-08-26T06:56:32.888Z,0.585
2022-08-26T06:57:45.365Z,0.585
2022-08-26T06:59:25.568Z,0.585
2022-08-26T07:00:47.476Z,0.585
2022-08-26T07:01:55.672Z,0.585
2022-08-26T07:03:04.546Z,0.585
2022-08-26T07:04:53.656Z,0.585
2022-08-26T07:06:01.213Z,0.585
2022-08-26T07:07:10.417Z,0.585
2022-08-26T07:08:48.225Z,0.585
2022-08-26T07:09:52.474Z,0.585
2022-08-26T07:11:01.408Z,0.585
2022-08-26T07:12:42.102Z,0.585
2022-08-26T07:14:00.838Z,0.585
2022-08-26T07:15:13.277Z,0.585
2022-08-26T07:16:49.872Z,0.585
2022-08-26T07:17:54.783Z,0.585
2022-08-26T07:19:03.414Z,0.585
2022-08-26T07:20:48.736Z,0.585
2022-08-26T07:21:55.003Z,0.585
2022-08-26T07:23:00.954Z,0.585
2022-08-26T07:24:41.174Z,0.585
2022-08-26T07:25:49.212Z,0.585
2022-08-26T07:26:56.963Z,0.585
2022-08-26T07:28:33.269Z,0.585
2022-08-26T07:29:37.020Z,0.585
2022-08-26T07:30:43.853Z,0.585
2022-08-26T07:32:24.535Z,0.585
2022-08-26T07:33:27.859Z,0.585
2022-08-26T07:34:33.065Z,0.585
2022-08-26T07:36:09.998Z,0.585
2022-08-26T07:37:20.060Z,0.585
2022-08-26T07:38:26.743Z,0.585
2022-08-26T07:40:04.126Z,0.585
2022-08-26T07:41:08.335Z,0.585
2022-08-26T07:42:14.258Z,0.585
2022-08-26T07:43:52.250Z,0.585
2022-08-26T07:44:57.448Z,0.585
2022-08-26T07:46:01.366Z,0.585
2022-08-26T07:47:55.101Z,0.585
2022-08-26T07:49:04.257Z,0.585
2022-08-26T07:50:11.770Z,0.585
2022-08-26T07:52:05.918Z,0.585
2022-08-26T07:53:10.839Z,0.585
2022-08-26T07:54:20.450Z,0.585
2022-08-26T07:56:03.380Z,0.585
2022-08-26T07:57:14.016Z,0.585
2022-08-26T07:58:17.613Z,0.585
2022-08-26T08:00:01.022Z,0.585
2022-08-26T08:01:51.152Z,0.585
2022-08-26T08:02:55.586Z,1.32
2022-08-26T08:04:02.277Z,1.17
2022-08-26T08:05:52.655Z,0.885
2022-08-26T08:06:56.940Z,0.885
2022-08-26T08:08:46.551Z,0.885
2022-08-26T08:10:37.327Z,1.17
2022-08-26T08:11:42.134Z,0.885
2022-08-26T08:12:47.589Z,0.735
2022-08-26T08:14:33.761Z,1.02
2022-08-26T08:15:38.399Z,1.17
2022-08-26T08:16:54.728Z,1.17
2022-08-26T08:18:38.447Z,1.32
2022-08-26T08:19:54.100Z,1.47
2022-08-26T08:21:29.326Z,1.905
2022-08-26T08:23:05.942Z,1.755
2022-08-26T08:24:10.338Z,1.32
2022-08-26T08:25:23.343Z,1.17
2022-08-26T08:27:01.791Z,1.32
2022-08-26T08:28:08.675Z,1.32
2022-08-26T08:29:17.432Z,1.32
2022-08-26T08:30:53.840Z,1.47
2022-08-26T08:32:32.406Z,1.905
2022-08-26T08:33:35.840Z,2.055
2022-08-26T08:35:17.437Z,2.19
2022-08-26T08:36:35.978Z,2.19
2022-08-26T08:37:40.089Z,2.19
2022-08-26T08:39:23.919Z,2.34
2022-08-26T08:40:29.218Z,2.34
2022-08-26T08:41:36.940Z,2.34
2022-08-26T08:43:16.096Z,2.19
2022-08-26T08:44:21.408Z,2.34
2022-08-26T08:45:28.256Z,2.19
2022-08-26T08:47:09.250Z,2.19
2022-08-26T08:48:13.817Z,2.34
2022-08-26T08:49:19.935Z,2.34
2022-08-26T08:50:59.137Z,2.34
2022-08-26T08:52:04.239Z,2.49
2022-08-26T08:53:08.972Z,2.34
2022-08-26T08:54:52.992Z,2.19
2022-08-26T08:55:59.635Z,1.905
2022-08-26T08:57:05.598Z,1.47
2022-08-26T08:58:42.579Z,1.02
2022-08-26T08:59:49.891Z,1.17
2022-08-26T09:00:51.553Z,1.32
2022-08-26T09:02:04.793Z,1.905
2022-08-26T09:03:11.095Z,1.905
2022-08-26T09:04:49.417Z,1.755
2022-08-26T09:06:00.987Z,1.755
2022-08-26T09:07:11.949Z,1.755
2022-08-26T09:08:55.789Z,1.47
2022-08-26T09:10:00.171Z,1.47
2022-08-26T09:11:06.795Z,1.47
2022-08-26T09:12:47.188Z,1.47
2022-08-26T09:14:00.334Z,1.47
2022-08-26T09:15:07.533Z,1.32
2022-08-26T09:16:49.181Z,1.02
2022-08-26T09:17:55.651Z,1.17
2022-08-26T09:19:03.468Z,0.885
2022-08-26T09:20:39.218Z,0.735
2022-08-26T09:21:42.860Z,1.02
2022-08-26T09:22:50.050Z,1.17
2022-08-26T09:24:48.265Z,1.47
2022-08-26T09:25:57.611Z,1.47
2022-08-26T09:27:04.625Z,1.47
2022-08-26T09:28:41.918Z,1.755
2022-08-26T09:29:50.434Z,1.905
2022-08-26T09:30:56.768Z,1.755
2022-08-26T09:32:34.049Z,1.47
2022-08-26T09:33:41.767Z,1.905
2022-08-26T09:34:47.273Z,1.755
2022-08-26T09:36:24.832Z,1.17
2022-08-26T09:37:32.993Z,1.02
2022-08-26T09:38:45.342Z,0.735
2022-08-26T09:40:22.045Z,0.435
2022-08-26T09:41:29.434Z,0.585
2022-08-26T09:42:38.071Z,0.585
2022-08-26T09:44:21.814Z,0.585
2022-08-26T09:45:28.947Z,0.585
2022-08-26T09:46:35.960Z,0.585
2022-08-26T09:48:23.395Z,0.885
2022-08-26T09:49:35.602Z,1.32
2022-08-26T09:50:46.651Z,1.47
2022-08-26T09:52:26.826Z,1.47
2022-08-26T09:53:42.862Z,1.755
2022-08-26T09:54:57.517Z,1.755
2022-08-26T09:56:35.001Z,1.47
2022-08-26T09:57:40.425Z,1.32
2022-08-26T09:58:47.566Z,1.32
2022-08-26T10:00:44.295Z,1.32
2022-08-26T10:01:51.000Z,1.32
2022-08-26T10:03:03.949Z,1.02
2022-08-26T10:04:41.512Z,1.02
2022-08-26T10:05:47.076Z,1.32
2022-08-26T10:06:50.698Z,1.32
2022-08-26T10:08:29.002Z,1.32
2022-08-26T10:09:39.516Z,1.17
2022-08-26T10:10:42.772Z,1.02
2022-08-26T10:12:23.511Z,0.885
2022-08-26T10:13:29.674Z,0.885
2022-08-26T10:14:33.225Z,1.02
2022-08-26T10:16:23.435Z,0.885
2022-08-26T10:17:30.767Z,0.585
2022-08-26T10:18:39.891Z,0.585
2022-08-26T10:20:42.936Z,0.735
2022-08-26T10:21:48.919Z,0.735
2022-08-26T10:22:57.348Z,0.885
2022-08-26T10:24:35.567Z,0.885
2022-08-26T10:25:38.982Z,0.885
2022-08-26T10:26:45.353Z,0.735
2022-08-26T10:28:23.294Z,1.02
2022-08-26T10:29:27.930Z,1.02
2022-08-26T10:30:32.681Z,1.02
2022-08-26T10:32:19.744Z,1.17
2022-08-26T10:33:24.017Z,1.17
2022-08-26T10:34:33.773Z,1.17
2022-08-26T10:36:20.806Z,1.32
2022-08-26T10:37:44.589Z,1.47
2022-08-26T10:38:57.906Z,1.47
2022-08-26T10:40:43.377Z,1.47
2022-08-26T10:41:47.507Z,1.47
2022-08-26T10:42:52.596Z,1.47
2022-08-26T10:44:30.207Z,1.47
2022-08-26T10:45:39.463Z,1.905
2022-08-26T10:46:47.043Z,1.755
2022-08-26T10:48:24.069Z,1.755
2022-08-26T10:49:30.001Z,1.905
2022-08-26T10:50:36.079Z,2.055
2022-08-26T10:52:23.667Z,2.34
2022-08-26T10:53:38.577Z,2.49
2022-08-26T10:54:47.928Z,2.64
2022-08-26T10:56:36.164Z,2.49
2022-08-26T10:57:40.377Z,1.905
2022-08-26T10:59:01.679Z,1.755
2022-08-26T11:00:44.929Z,1.905
2022-08-26T11:02:03.848Z,1.755
2022-08-26T11:03:28.234Z,1.32
2022-08-26T11:05:12.381Z,1.32
2022-08-26T11:06:18.000Z,1.47
2022-08-26T11:07:23.564Z,1.755
2022-08-26T11:09:01.930Z,1.755
2022-08-26T11:10:06.939Z,2.19
2022-08-26T11:11:16.280Z,2.34
2022-08-26T11:13:00.605Z,2.925
2022-08-26T11:14:10.241Z,3.075
2022-08-26T11:15:36.412Z,3.225
2022-08-26T11:17:18.846Z,3.66
2022-08-26T11:18:25.029Z,3.66
2022-08-26T11:19:50.548Z,3.81
2022-08-26T11:21:42.521Z,3.225
2022-08-26T11:22:53.874Z,3.075
2022-08-26T11:24:05.277Z,2.79
2022-08-26T11:25:53.871Z,2.64
2022-08-26T11:27:22.109Z,2.49
2022-08-26T11:28:26.949Z,2.49
2022-08-26T11:30:07.707Z,2.19
2022-08-26T11:31:21.875Z,2.19
2022-08-26T11:32:26.950Z,2.19
2022-08-26T11:34:05.801Z,2.34
2022-08-26T11:35:10.262Z,2.49
2022-08-26T11:36:23.786Z,2.49
2022-08-26T11:38:05.086Z,2.64
2022-08-26T11:39:11.840Z,2.64
2022-08-26T11:40:26.134Z,2.055
2022-08-26T11:42:04.350Z,1.32
2022-08-26T11:43:11.222Z,1.17
2022-08-26T11:44:18.347Z,1.32
2022-08-26T11:46:02.114Z,1.47
2022-08-26T11:47:05.801Z,1.755
2022-08-26T11:48:16.238Z,1.905
2022-08-26T11:49:53.285Z,2.34
2022-08-26T11:50:57.519Z,2.64
2022-08-26T11:52:08.390Z,2.64
2022-08-26T11:53:52.907Z,2.79
2022-08-26T11:55:04.928Z,2.79
2022-08-26T11:56:10.395Z,2.79
2022-08-26T11:57:52.573Z,2.79
2022-08-26T11:58:58.284Z,2.79
2022-08-26T12:00:57.175Z,2.64
2022-08-26T12:02:00.427Z,2.49
2022-08-26T12:03:05.077Z,2.49
2022-08-26T12:04:43.303Z,2.49
2022-08-26T12:05:51.011Z,2.49
2022-08-26T12:07:02.588Z,2.49
2022-08-26T12:09:53.461Z,1.17
2022-08-26T12:10:58.219Z,1.32
2022-08-26T12:12:03.962Z,1.17
2022-08-26T12:13:45.988Z,1.17
2022-08-26T12:14:51.533Z,1.32
2022-08-26T12:16:01.771Z,1.32
2022-08-26T12:17:39.802Z,1.47
2022-08-26T12:18:57.262Z,1.32
2022-08-26T12:20:02.217Z,1.47
2022-08-26T12:21:42.962Z,1.47
2022-08-26T12:22:54.012Z,1.47
2022-08-26T12:24:01.548Z,1.47
2022-08-26T12:25:49.065Z,1.47
2022-08-26T12:26:52.497Z,1.02
2022-08-26T12:28:05.112Z,0.735
2022-08-26T12:30:00.273Z,0.585
2022-08-26T12:31:06.658Z,0.585
2022-08-26T12:32:12.971Z,0.585
2022-08-26T12:34:35.631Z,0.885
2022-08-26T12:35:40.902Z,1.02
2022-08-26T12:36:46.980Z,1.17
2022-08-26T12:38:24.150Z,1.32
2022-08-26T12:39:27.564Z,1.32
2022-08-26T12:40:32.279Z,1.47
2022-08-26T12:42:07.492Z,1.905
2022-08-26T12:43:11.032Z,2.055
2022-08-26T12:44:14.384Z,2.055
2022-08-26T12:45:58.592Z,1.755
2022-08-26T12:47:06.858Z,1.32
2022-08-26T12:48:12.471Z,1.17
2022-08-26T12:49:47.927Z,0.885
2022-08-26T12:50:51.348Z,1.02
2022-08-26T12:51:54.858Z,1.32
2022-08-26T12:53:31.176Z,1.32
2022-08-26T12:54:34.481Z,1.47
2022-08-26T12:55:39.843Z,1.47
2022-08-26T12:57:15.009Z,1.755
2022-08-26T12:58:18.682Z,1.755
2022-08-26T12:59:26.063Z,1.905
2022-08-26T13:00:46.227Z,2.055
2022-08-26T13:01:51.045Z,2.19
2022-08-26T13:02:54.456Z,2.055
2022-08-26T13:04:32.783Z,1.905
2022-08-26T13:05:36.230Z,1.905
2022-08-26T13:06:44.760Z,1.755
2022-08-26T13:08:20.431Z,1.47
2022-08-26T13:09:23.714Z,1.47
2022-08-26T13:10:29.151Z,1.755
2022-08-26T13:12:08.067Z,1.47
2022-08-26T13:13:11.739Z,1.905
2022-08-26T13:14:29.854Z,1.905
2022-08-26T13:16:05.422Z,2.055
2022-08-26T13:17:08.896Z,1.905
2022-08-26T13:18:15.340Z,1.905
2022-08-26T13:19:50.704Z,1.755
2022-08-26T13:20:54.071Z,1.905
2022-08-26T13:22:00.674Z,1.47
2022-08-26T13:23:40.614Z,1.32
2022-08-26T13:24:45.899Z,1.17
2022-08-26T13:25:49.579Z,1.02
2022-08-26T13:27:25.301Z,1.02
2022-08-26T13:28:28.485Z,1.02
2022-08-26T13:29:37.570Z,1.02
2022-08-26T13:31:17.039Z,1.17
2022-08-26T13:32:21.926Z,1.17
2022-08-26T13:33:31.873Z,1.17
2022-08-26T13:35:17.422Z,1.32
2022-08-26T13:36:20.529Z,1.32
2022-08-26T13:37:34.241Z,1.47
2022-08-26T13:39:16.737Z,1.47
2022-08-26T13:40:20.825Z,1.755
2022-08-26T13:41:35.383Z,1.47
2022-08-26T13:43:19.007Z,1.17
2022-08-26T13:44:22.562Z,0.885
2022-08-26T13:45:26.063Z,0.735
2022-08-26T13:47:01.936Z,0.435
2022-08-26T13:48:05.310Z,0.435
2022-08-26T13:49:13.062Z,0.435
2022-08-26T13:50:48.613Z,0.585
2022-08-26T13:51:51.869Z,0.585
2022-08-26T13:52:59.612Z,0.735
2022-08-26T13:54:35.031Z,0.735
2022-08-26T13:55:38.449Z,0.885
2022-08-26T13:56:41.911Z,0.885
2022-08-26T13:58:17.288Z,0.885
2022-08-26T13:59:20.768Z,0.885
2022-08-26T14:00:42.401Z,0.885
2022-08-26T14:01:45.763Z,0.885
2022-08-26T14:02:49.148Z,0.885
2022-08-26T14:04:38.525Z,1.02
2022-08-26T14:05:42.238Z,1.17
2022-08-26T14:06:45.782Z,1.17
2022-08-26T14:08:23.423Z,1.17
2022-08-26T14:09:28.784Z,1.32
2022-08-26T14:10:33.258Z,1.32
2022-08-26T14:12:25.667Z,1.32
2022-08-26T14:13:30.510Z,1.32
2022-08-26T14:14:33.878Z,1.32
2022-08-26T14:16:09.842Z,1.47
2022-08-26T14:17:29.918Z,1.47
2022-08-26T14:18:50.725Z,1.755
2022-08-26T14:20:33.343Z,1.755
2022-08-26T14:21:36.708Z,1.905
2022-08-26T14:22:52.088Z,1.905
2022-08-26T14:24:39.857Z,1.905
2022-08-26T14:25:43.346Z,1.905
2022-08-26T14:26:58.032Z,1.905
2022-08-26T14:28:33.856Z,2.055
2022-08-26T14:29:40.908Z,2.055
2022-08-26T14:30:44.289Z,2.055
2022-08-26T14:32:21.375Z,2.19
2022-08-26T14:33:26.238Z,2.19
2022-08-26T14:34:29.710Z,2.19
2022-08-26T14:36:11.909Z,2.19
2022-08-26T14:37:26.968Z,2.19
2022-08-26T14:38:30.509Z,2.19
2022-08-26T14:40:06.445Z,1.755
2022-08-26T14:41:09.948Z,1.47
2022-08-26T14:42:22.348Z,1.47
2022-08-26T14:44:07.904Z,1.32
2022-08-26T14:45:11.220Z,1.32
2022-08-26T14:46:14.807Z,1.02
2022-08-26T14:47:53.241Z,0.885
2022-08-26T14:49:01.812Z,1.02
2022-08-26T14:50:06.006Z,1.02
2022-08-26T14:51:41.571Z,0.885
2022-08-26T14:52:44.816Z,0.735
2022-08-26T14:53:48.315Z,0.735
2022-08-26T14:55:24.036Z,0.735
2022-08-26T14:56:33.763Z,0.735
2022-08-26T14:57:38.102Z,0.735
2022-08-26T14:59:14.140Z,0.735
2022-08-26T15:00:40.690Z,0.885
2022-08-26T15:01:48.743Z,0.885
2022-08-26T15:03:03.550Z,0.885
2022-08-26T15:04:39.452Z,1.02
2022-08-26T15:05:44.931Z,1.02
2022-08-26T15:06:50.695Z,1.02
2022-08-26T15:08:28.238Z,1.02
2022-08-26T15:09:31.642Z,1.02
2022-08-26T15:10:35.135Z,1.17
2022-08-26T15:12:10.938Z,0.885
2022-08-26T15:13:14.543Z,0.735
2022-08-26T15:14:26.054Z,0.735
2022-08-26T15:16:03.447Z,0.885
2022-08-26T15:17:06.761Z,0.885
2022-08-26T15:18:12.284Z,0.885
2022-08-26T15:19:47.771Z,0.885
2022-08-26T15:20:51.233Z,0.585
2022-08-26T15:21:54.702Z,0.435
2022-08-26T15:23:35.174Z,0.435
2022-08-26T15:24:39.254Z,0.435
2022-08-26T15:25:42.462Z,0.435
2022-08-26T15:27:18.118Z,0.435
2022-08-26T15:28:21.513Z,0.435
2022-08-26T15:29:30.274Z,0.435
2022-08-26T15:31:11.238Z,0.435
2022-08-26T15:32:17.963Z,0.435
2022-08-26T15:33:26.842Z,0.435
2022-08-26T15:35:06.850Z,0.435
2022-08-26T15:36:12.328Z,0.435
2022-08-26T15:37:15.831Z,0.435
2022-08-26T15:38:51.532Z,0.435
2022-08-26T15:39:54.891Z,0.435
2022-08-26T15:41:02.375Z,0.585
2022-08-26T15:42:38.879Z,0.435
2022-08-26T15:43:56.710Z,0.585
2022-08-26T15:45:00.196Z,0.585
2022-08-26T15:46:43.352Z,0.585
2022-08-26T15:48:13.084Z,0.585
2022-08-26T15:49:28.341Z,0.585
2022-08-26T15:51:03.848Z,0.435
2022-08-26T15:52:16.959Z,0.435
2022-08-26T15:53:20.207Z,0.585
2022-08-26T15:54:56.235Z,0.585
2022-08-26T15:56:02.101Z,0.735
2022-08-26T15:57:10.822Z,0.585
2022-08-26T15:58:50.408Z,0.735
2022-08-26T15:59:53.819Z,0.735
2022-08-26T16:00:40.367Z,0.735
2022-08-26T16:01:56.281Z,0.735
2022-08-26T16:03:00.880Z,0.735
2022-08-26T16:04:36.393Z,0.885
2022-08-26T16:06:09.563Z,0.885
2022-08-26T16:07:13.340Z,0.885
2022-08-26T16:08:16.736Z,0.885
2022-08-26T16:09:59.761Z,0.885
2022-08-26T16:11:09.323Z,1.02
2022-08-26T16:12:12.844Z,1.02
2022-08-26T16:14:02.261Z,1.02
2022-08-26T16:15:09.727Z,1.02
2022-08-26T16:16:15.599Z,1.02
2022-08-26T16:17:51.124Z,1.02
2022-08-26T16:18:54.360Z,1.17
2022-08-26T16:19:57.856Z,1.17
2022-08-26T16:21:42.567Z,1.17
2022-08-26T16:22:50.382Z,1.02
2022-08-26T16:23:56.723Z,1.02
2022-08-26T16:25:39.053Z,0.885
2022-08-26T16:26:42.420Z,0.885
2022-08-26T16:27:46.109Z,0.885
2022-08-26T16:29:35.490Z,0.885
2022-08-26T16:30:38.657Z,0.885
2022-08-26T16:31:42.815Z,0.735
2022-08-26T16:33:29.295Z,0.585
2022-08-26T16:34:32.721Z,0.585
2022-08-26T16:35:35.996Z,0.435
2022-08-26T16:37:11.309Z,0.585
2022-08-26T16:38:15.026Z,0.435
2022-08-26T16:39:18.360Z,0.585
2022-08-26T16:41:00.167Z,0.585
2022-08-26T16:42:03.460Z,0.585
2022-08-26T16:43:06.622Z,0.585
2022-08-26T16:44:47.844Z,0.585
2022-08-26T16:45:53.419Z,0.585
2022-08-26T16:47:04.527Z,0.735
2022-08-26T16:48:39.966Z,0.735
2022-08-26T16:49:43.250Z,0.885
2022-08-26T16:50:46.711Z,0.735
2022-08-26T16:52:25.437Z,0.735
2022-08-26T16:53:34.792Z,0.585
2022-08-26T16:54:38.022Z,0.585
2022-08-26T16:56:13.329Z,0.885
2022-08-26T16:57:16.541Z,0.885
2022-08-26T16:58:22.129Z,0.735
2022-08-26T16:59:57.692Z,0.585
2022-08-26T17:00:41.008Z,0.585
2022-08-26T17:01:44.972Z,0.585
2022-08-26T17:02:49.757Z,0.585
2022-08-26T17:04:25.298Z,0.585
2022-08-26T17:05:28.651Z,0.585
2022-08-26T17:06:31.880Z,0.585
2022-08-26T17:08:07.259Z,0.435
2022-08-26T17:09:10.467Z,0.435
2022-08-26T17:10:13.909Z,0.435
2022-08-26T17:11:49.344Z,0.435
2022-08-26T17:12:52.654Z,0.435
2022-08-26T17:14:04.399Z,0.435
2022-08-26T17:15:40.087Z,0
2022-08-26T17:16:49.672Z,0
2022-08-26T17:17:52.984Z,0
2022-08-26T17:19:28.155Z,0
2022-08-26T17:20:36.152Z,0
2022-08-26T17:21:39.704Z,0
2022-08-26T17:23:15.460Z,0
2022-08-26T17:24:20.473Z,0
2022-08-26T17:25:23.913Z,0
2022-08-26T17:27:07.219Z,0
2022-08-26T17:28:19.075Z,0
2022-08-26T17:29:22.458Z,0
2022-08-26T17:31:00.176Z,0
2022-08-26T17:32:06.244Z,0
2022-08-26T17:33:18.669Z,0
2022-08-26T17:35:04.937Z,0
2022-08-26T17:36:08.291Z,0
2022-08-26T17:37:11.571Z,0
2022-08-26T17:38:46.952Z,0.435
2022-08-26T17:39:53.327Z,0
2022-08-26T17:40:56.995Z,0
2022-08-26T17:42:42.968Z,0
2022-08-26T17:43:46.173Z,0
2022-08-26T17:44:49.451Z,0
2022-08-26T17:46:31.634Z,0
2022-08-26T17:47:36.356Z,0
2022-08-26T17:48:40.007Z,0
2022-08-26T17:50:15.076Z,0
2022-08-26T17:51:18.415Z,0
2022-08-26T17:52:27.870Z,0
2022-08-26T17:54:03.174Z,0
2022-08-26T17:55:06.492Z,0
2022-08-26T17:56:14.384Z,0
2022-08-26T17:58:07.124Z,0
2022-08-26T17:59:30.546Z,0
2022-08-26T18:00:40.536Z,0
2022-08-26T18:01:44.558Z,0
2022-08-26T18:02:48.137Z,0